首页
METAR-TAF:

METAR-TAF

机场 :

Havre City-County Airport

哈佛, 蒙大拿州, 美国

纬度: 48-32-34N, 经度: 109-45-48W, 海拔: 789米

当前天气观测

该预报发布于1小时和3分钟前的19:53 UTC
风速17节,风向北转西北,有时为28节阵风
温度 12°C
湿度 40%
气压 1007 hPa
能見度: 16.1公里
少量云层高于9000英尺

METAR: KHVR 071953Z AUTO 34017G28KT 10SM FEW090 12/M01 A2973 RMK AO2 PK WND 27035/1854 WSHFT 1900 SLP080 T01221006

时间: 14:56 (20:56 UTC)

预报

该预报发布于3小时和36分钟前的17:20 UTC
预报有效从07日的 18点(UTC)到 08日的 18点(UTC)
风速24节,风向西转西北,有时为36节阵风
能見度: 10公里
少量云层高于4500英尺
散云层高于12000英尺
从 07日的 2100点(UTC)
风速17节,风向,有时为26节阵风
能見度: 10公里
散云层高于4000英尺
多云层高于9000英尺
附近有阵雨
从 08日的 0400点(UTC)
风速17节,风向,有时为25节阵风
能見度: 10公里
散云层高于2000英尺
阴天层高于5000英尺
几率 30%
从 08日的 04点(UTC)到 08日的 07点(UTC)
能見度: 6.4公里
多云层高于2000英尺
多云层高于2500英尺
多云层高于3000英尺
小雪
从 08日的 0800点(UTC)
风速12节,风向西转西北
能見度: 10公里
散云层高于3000英尺
多云层高于9000英尺

TAF: KHVR 071720Z 0718/0818 30024G36KT P6SM FEW045 SCT120 FM072100 36017G26KT P6SM VCSH SCT040 BKN090 FM080400 01017G25KT P6SM SCT020 OVC050 PROB30 0804/0807 4SM -SN BKN020 BKN025 BKN030 FM080800 29012KT P6SM SCT030 BKN090

超过4000个机场的气象观测和天气预报(METAR&TAF报告)。

可查询的气象台以黄色和红色小点在地图上表示。

将鼠标移到小点上方,可查看气象台名称。

然后点击查看天气观测和预报。

如需切换地图:点击带黑十字的绿色按钮放大地图;点击带横线的绿色按钮缩小地图;或者点击绿色箭头查看邻近地区的地图。


METAR-TAF: